createdAt,value
2018-10-06T00:01:36.811Z,100859.97
2018-10-06T00:06:39.875Z,100860.22
2018-10-06T00:11:42.955Z,100853.70
2018-10-06T00:16:46.018Z,100843.73
2018-10-06T00:21:49.121Z,100835.48
2018-10-06T00:26:52.200Z,100829.55
2018-10-06T00:31:55.272Z,100825.80
2018-10-06T00:36:58.312Z,100820.55
2018-10-06T00:42:01.374Z,100829.69
2018-10-06T00:47:04.535Z,100819.95
2018-10-06T00:52:07.661Z,100816.53
2018-10-06T00:57:10.720Z,100820.36
2018-10-06T01:02:14.120Z,100816.27
2018-10-06T01:07:17.462Z,100814.13
2018-10-06T01:12:21.935Z,100801.75
2018-10-06T01:17:25.348Z,100801.58
2018-10-06T01:22:28.767Z,100800.96
2018-10-06T01:27:31.855Z,100793.88
2018-10-06T01:32:34.917Z,100788.30
2018-10-06T01:37:37.964Z,100772.84
2018-10-06T01:42:41.020Z,100773.06
2018-10-06T01:47:44.088Z,100774.61
2018-10-06T01:52:47.141Z,100772.13
2018-10-06T01:57:50.194Z,100770.28
2018-10-06T02:02:53.235Z,100760.22
2018-10-06T02:07:56.319Z,100755.35
2018-10-06T02:12:59.355Z,100756.67
2018-10-06T02:18:02.458Z,100742.43
2018-10-06T02:23:05.739Z,100734.38
2018-10-06T02:28:08.796Z,100732.34
2018-10-06T02:33:11.886Z,100732.92
2018-10-06T02:38:14.979Z,100732.13
2018-10-06T02:43:18.052Z,100728.92
2018-10-06T02:48:21.191Z,100732.72
2018-10-06T02:53:24.271Z,100730.54
2018-10-06T02:58:27.331Z,100727.05
2018-10-06T03:03:30.416Z,100719.72
2018-10-06T03:08:33.495Z,100721.20
2018-10-06T03:13:36.818Z,100716.69
2018-10-06T03:18:39.904Z,100713.47
2018-10-06T03:23:42.958Z,100706.04
2018-10-06T03:28:46.068Z,100701.00
2018-10-06T03:33:49.144Z,100695.43
2018-10-06T03:38:52.223Z,100696.95
2018-10-06T03:43:55.315Z,100691.06
2018-10-06T03:48:58.412Z,100693.38
2018-10-06T04:02:01.612Z,100683.27
2018-10-06T04:07:04.732Z,100679.47
2018-10-06T04:12:07.858Z,100686.83
2018-10-06T04:17:10.940Z,100677.30
2018-10-06T04:22:14.034Z,100679.40
2018-10-06T04:27:17.043Z,100669.21
2018-10-06T04:32:20.136Z,100660.68
2018-10-06T04:37:23.208Z,100661.16
2018-10-06T04:42:26.479Z,100660.75
2018-10-06T04:47:29.583Z,100656.02
2018-10-06T04:52:32.654Z,100652.87
2018-10-06T04:57:35.713Z,100652.73
2018-10-06T05:02:38.911Z,100644.86
2018-10-06T05:07:42.115Z,100651.03
2018-10-06T05:12:45.223Z,100643.30
2018-10-06T05:17:48.279Z,100639.81
2018-10-06T05:22:51.684Z,100650.59
2018-10-06T05:27:56.060Z,100647.83
2018-10-06T05:33:00.263Z,100645.41
2018-10-06T05:38:03.345Z,100652.85
2018-10-06T05:43:06.518Z,100642.70
2018-10-06T05:48:09.640Z,100641.23
2018-10-06T05:53:12.696Z,100648.08
2018-10-06T05:58:15.724Z,100637.37
2018-10-06T06:03:18.795Z,100638.05
2018-10-06T06:08:21.855Z,100639.74
2018-10-06T06:13:24.903Z,100640.54
2018-10-06T06:18:27.953Z,100646.96
2018-10-06T06:23:31.016Z,100647.75
2018-10-06T06:28:34.123Z,100642.90
2018-10-06T06:33:37.198Z,100640.19
2018-10-06T06:38:40.236Z,100644.55
2018-10-06T06:43:43.360Z,100636.41
2018-10-06T06:48:46.448Z,100632.97
2018-10-06T06:53:49.488Z,100632.03
2018-10-06T06:58:52.651Z,100633.08
2018-10-06T07:03:55.699Z,100633.70
2018-10-06T07:08:58.719Z,100640.34
2018-10-06T07:14:01.751Z,100633.72
2018-10-06T07:19:04.953Z,100625.03
2018-10-06T07:24:08.001Z,100622.00
2018-10-06T07:29:11.076Z,100623.32
2018-10-06T07:34:14.123Z,100622.89
2018-10-06T07:39:17.169Z,100620.84
2018-10-06T07:44:20.214Z,100618.05
2018-10-06T07:49:23.319Z,100610.19
2018-10-06T07:54:26.356Z,100606.32
2018-10-06T07:59:29.467Z,100601.06
2018-10-06T08:04:32.864Z,100600.23
2018-10-06T08:09:35.887Z,100591.44
2018-10-06T08:14:38.938Z,100589.89
2018-10-06T08:19:41.978Z,100580.06
2018-10-06T08:24:45.032Z,100577.31
2018-10-06T08:29:48.161Z,100569.91
2018-10-06T08:34:51.206Z,100567.04
2018-10-06T08:39:54.231Z,100563.33
2018-10-06T08:44:57.306Z,100560.45
2018-10-06T08:50:00.345Z,100563.38
2018-10-06T08:55:03.403Z,100557.76
2018-10-06T09:00:06.572Z,100554.06
2018-10-06T09:05:09.632Z,100557.03
2018-10-06T09:10:12.674Z,100556.33
2018-10-06T09:15:15.706Z,100558.59
2018-10-06T09:20:19.099Z,100550.06
2018-10-06T09:25:22.173Z,100549.03
2018-10-06T09:30:25.227Z,100544.64
2018-10-06T09:35:28.259Z,100538.57
2018-10-06T09:40:31.300Z,100536.78
2018-10-06T09:45:34.347Z,100521.87
2018-10-06T09:50:37.391Z,100539.27
2018-10-06T09:55:40.550Z,100537.85
2018-10-06T10:00:49.075Z,100530.91
2018-10-06T10:05:54.171Z,100522.17
2018-10-06T10:10:57.270Z,100522.20
2018-10-06T10:16:00.323Z,100508.05
2018-10-06T10:21:03.420Z,100512.67
2018-10-06T10:26:06.687Z,100498.51
2018-10-06T10:31:09.819Z,100497.89
2018-10-06T10:36:13.018Z,100484.40
2018-10-06T10:41:16.940Z,100481.19
2018-10-06T10:46:20.372Z,100477.78
2018-10-06T10:51:25.085Z,100472.52
2018-10-06T10:56:29.061Z,100462.25
2018-10-06T11:01:32.965Z,100458.86
2018-10-06T11:06:36.039Z,100448.10
2018-10-06T11:11:40.222Z,100443.72
2018-10-06T11:16:44.035Z,100432.61
2018-10-06T11:21:47.577Z,100417.63
2018-10-06T11:26:50.656Z,100410.55
2018-10-06T11:31:53.816Z,100405.28
2018-10-06T11:36:57.030Z,100401.20
2018-10-06T11:42:00.307Z,100399.34
2018-10-06T11:47:03.492Z,100395.15
2018-10-06T11:52:07.519Z,100381.31
2018-10-06T11:57:10.699Z,100379.41
2018-10-06T12:02:13.820Z,100369.63
2018-10-06T12:07:16.939Z,100354.83
2018-10-06T12:12:20.064Z,100356.16
2018-10-06T12:17:23.240Z,100347.07
2018-10-06T12:22:26.308Z,100340.45
2018-10-06T12:27:29.381Z,100333.93
2018-10-06T12:32:32.448Z,100331.69
2018-10-06T12:37:35.495Z,100327.44
2018-10-06T12:42:39.056Z,100325.13
2018-10-06T12:47:42.369Z,100311.86
2018-10-06T12:52:45.468Z,100306.66
2018-10-06T12:57:48.549Z,100300.78
2018-10-06T13:02:51.692Z,100297.78
2018-10-06T13:07:54.863Z,100275.02
2018-10-06T13:12:57.976Z,100277.76
2018-10-06T13:18:02.387Z,100281.01
2018-10-06T13:23:05.575Z,100280.33
2018-10-06T13:28:08.693Z,100279.24
2018-10-06T13:33:11.788Z,100272.34
2018-10-06T13:38:14.895Z,100275.93
2018-10-06T13:43:18.004Z,100264.97
2018-10-06T13:48:21.178Z,100261.56
2018-10-06T13:53:24.290Z,100253.77
2018-10-06T13:58:27.367Z,100250.41
2018-10-06T14:03:30.469Z,100245.41
2018-10-06T14:08:33.556Z,100246.17
2018-10-06T14:13:36.659Z,100242.77
2018-10-06T14:18:39.767Z,100241.67
2018-10-06T14:23:42.816Z,100227.78
2018-10-06T14:28:45.871Z,100229.29
2018-10-06T14:33:48.937Z,100226.48
2018-10-06T14:38:52.011Z,100218.45
2018-10-06T14:43:55.072Z,100217.64
2018-10-06T14:48:58.167Z,100217.64
2018-10-06T14:54:01.259Z,100221.94
2018-10-06T14:59:04.503Z,100224.13
2018-10-06T15:04:07.584Z,100222.75
2018-10-06T15:09:11.280Z,100216.91
2018-10-06T15:14:14.352Z,100211.92
2018-10-06T15:19:17.423Z,100217.22
2018-10-06T15:24:20.563Z,100212.53
2018-10-06T15:29:23.645Z,100200.95
2018-10-06T15:34:26.703Z,100202.61
2018-10-06T15:39:29.777Z,100201.32
2018-10-06T15:44:32.847Z,100206.31
2018-10-06T15:49:35.911Z,100176.31
2018-10-06T15:54:38.999Z,100203.58
2018-10-06T15:59:42.133Z,100207.60
2018-10-06T16:04:45.304Z,100202.93
2018-10-06T16:09:48.404Z,100212.64
2018-10-06T16:14:51.511Z,100211.72
2018-10-06T16:19:54.563Z,100207.27
2018-10-06T16:24:57.619Z,100208.16
2018-10-06T16:30:00.703Z,100208.66
2018-10-06T16:35:03.904Z,100186.23
2018-10-06T16:40:07.048Z,100207.53
2018-10-06T16:45:10.203Z,100214.36
2018-10-06T16:50:13.299Z,100213.86
2018-10-06T16:55:16.352Z,100216.53
2018-10-06T17:00:19.521Z,100222.38
2018-10-06T17:05:22.610Z,100222.76
2018-10-06T17:10:25.655Z,100227.09
2018-10-06T17:15:28.759Z,100238.94
2018-10-06T17:20:31.826Z,100237.20
2018-10-06T17:25:34.983Z,100233.81
2018-10-06T17:30:38.066Z,100235.22
2018-10-06T17:35:41.137Z,100229.87
2018-10-06T17:40:44.233Z,100231.47
2018-10-06T17:45:47.336Z,100231.03
2018-10-06T17:50:50.599Z,100234.27
2018-10-06T17:55:53.496Z,100223.08
2018-10-06T18:00:56.684Z,100232.53
2018-10-06T18:05:59.717Z,100231.91
2018-10-06T18:11:02.817Z,100248.67
2018-10-06T18:16:06.027Z,100244.66
2018-10-06T18:21:11.686Z,100247.64
2018-10-06T18:26:15.402Z,100256.11
2018-10-06T18:31:18.652Z,100253.72
2018-10-06T18:36:22.117Z,100264.48
2018-10-06T18:41:25.151Z,100260.63
2018-10-06T18:46:28.400Z,100258.11
2018-10-06T18:51:31.544Z,100258.85
2018-10-06T18:56:34.625Z,100260.23
2018-10-06T19:01:37.675Z,100257.58
2018-10-06T19:06:40.782Z,100262.28
2018-10-06T19:11:43.910Z,100262.89
2018-10-06T19:16:46.965Z,100272.55
2018-10-06T19:21:50.134Z,100276.77
2018-10-06T19:26:53.192Z,100293.80
2018-10-06T19:31:56.255Z,100294.14
2018-10-06T19:36:59.353Z,100302.01
2018-10-06T19:42:02.432Z,100304.30
2018-10-06T19:47:05.556Z,100316.15
2018-10-06T19:52:08.607Z,100316.75
2018-10-06T19:57:11.703Z,100317.12
2018-10-06T20:02:14.752Z,100316.04
2018-10-06T20:07:17.825Z,100325.44
2018-10-06T20:12:20.993Z,100323.11
2018-10-06T20:17:23.996Z,100331.79
2018-10-06T20:22:27.036Z,100333.59
2018-10-06T20:27:30.108Z,100346.38
2018-10-06T20:32:33.183Z,100348.21
2018-10-06T20:37:36.270Z,100346.93
2018-10-06T20:42:39.425Z,100344.05
2018-10-06T20:47:42.544Z,100344.15
2018-10-06T20:52:45.595Z,100354.44
2018-10-06T20:57:48.687Z,100355.59
2018-10-06T21:02:51.740Z,100368.30
2018-10-06T21:07:54.772Z,100376.78
2018-10-06T21:12:57.853Z,100372.92
2018-10-06T21:18:00.944Z,100369.53
2018-10-06T21:23:03.992Z,100367.78
2018-10-06T21:28:07.220Z,100371.80
2018-10-06T21:33:10.278Z,100377.41
2018-10-06T21:38:13.332Z,100376.77
2018-10-06T21:43:16.378Z,100371.30
2018-10-06T21:48:19.445Z,100378.45
2018-10-06T21:53:22.572Z,100375.58
2018-10-06T21:58:25.624Z,100379.08
2018-10-06T22:03:28.844Z,100380.13
2018-10-06T22:08:31.952Z,100391.64
2018-10-06T22:13:35.056Z,100394.88
2018-10-06T22:18:38.131Z,100401.60
2018-10-06T22:23:41.231Z,100406.02
2018-10-06T22:28:44.323Z,100406.89
2018-10-06T22:33:47.375Z,100421.21
2018-10-06T22:38:50.460Z,100418.56
2018-10-06T22:43:53.528Z,100434.75
2018-10-06T22:48:56.631Z,100439.37
2018-10-06T23:05:26.201Z,100467.59
2018-10-06T23:10:29.236Z,100468.34
2018-10-06T23:15:32.279Z,100471.32
2018-10-06T23:20:35.416Z,100486.00
2018-10-06T23:25:38.462Z,100498.20
2018-10-06T23:30:41.504Z,100508.78
2018-10-06T23:35:44.531Z,100515.44
2018-10-06T23:40:47.588Z,100517.47
2018-10-06T23:45:50.646Z,100512.28
2018-10-06T23:50:53.763Z,100504.73
2018-10-06T23:55:56.904Z,100505.77
